Time;durP1;ratioP1;P1;durP2;ratioP2;P2;SDS_P1;SDS_P2;PMS_P1;PMS_P2;Temp;Humidity;BMP_temperature;BMP_pressure;BME280_temperature;BME280_humidity;BME280_pressure;Samples;Min_cycle;Max_cycle;Signal;HPM_P1;HPM_P2
2022/07/11 00:01:47;;;;;;;9.63;3.03;;;;;;;;;;5001814;28;20125;-76
2022/07/11 00:04:12;;;;;;;8.90;2.67;;;;;;;;;;4976782;28;20044;-76
2022/07/11 00:06:38;;;;;;;7.05;2.22;;;;;;;;;;5018832;28;20512;-76
2022/07/11 00:09:04;;;;;;;7.18;3.08;;;;;;;;;;5003129;28;20042;-74
2022/07/11 00:11:29;;;;;;;11.63;2.97;;;;;;;;;;5001998;28;20478;-75
2022/07/11 00:13:55;;;;;;;9.02;2.53;;;;;;;;;;4998811;28;20711;-74
2022/07/11 00:16:20;;;;;;;8.65;2.92;;;;;;;;;;4998883;28;20048;-76
2022/07/11 00:18:45;;;;;;;5.80;2.50;;;;;;;;;;4998988;28;20029;-75
2022/07/11 00:21:11;;;;;;;8.50;2.60;;;;;;;;;;5016133;28;20141;-75
2022/07/11 00:23:36;;;;;;;8.43;2.88;;;;;;;;;;4999159;28;20033;-76
2022/07/11 00:26:02;;;;;;;8.90;2.72;;;;;;;;;;4980854;28;20074;-76
2022/07/11 00:28:27;;;;;;;11.52;2.65;;;;;;;;;;5001253;28;20521;-75
2022/07/11 00:30:53;;;;;;;8.25;2.83;;;;;;;;;;4990112;28;20030;-76
2022/07/11 00:33:18;;;;;;;7.10;2.75;;;;;;;;;;4984170;28;20091;-76
2022/07/11 00:35:44;;;;;;;12.52;3.20;;;;;;;;;;5000733;28;20037;-75
2022/07/11 00:38:09;;;;;;;13.25;4.32;;;;;;;;;;5000457;28;20414;-76
2022/07/11 00:40:34;;;;;;;6.70;3.83;;;;;;;;;;4984909;28;20064;-74
2022/07/11 00:43:01;;;;;;;7.25;3.13;;;;;;;;;;4982951;28;20104;-76
2022/07/11 00:45:27;;;;;;;12.35;3.05;;;;;;;;;;4973743;28;20046;-74
2022/07/11 00:47:52;;;;;;;10.75;3.65;;;;;;;;;;4957449;28;20061;-76
2022/07/11 00:50:20;;;;;;;12.55;3.53;;;;;;;;;;5001422;28;20037;-75
2022/07/11 00:52:46;;;;;;;8.65;3.25;;;;;;;;;;4969121;28;20030;-76
2022/07/11 00:55:11;;;;;;;8.50;3.20;;;;;;;;;;4998019;28;20088;-74
2022/07/11 00:57:37;;;;;;;9.43;3.90;;;;;;;;;;5001893;28;20383;-75
2022/07/11 01:00:06;;;;;;;11.02;5.22;;;;;;;;;;5001426;28;20069;-75
2022/07/11 01:02:31;;;;;;;19.65;4.72;;;;;;;;;;5001229;28;20978;-76
2022/07/11 01:04:57;;;;;;;11.02;4.15;;;;;;;;;;4997723;28;20037;-75
2022/07/11 01:07:25;;;;;;;12.23;4.47;;;;;;;;;;5001366;28;20068;-76
2022/07/11 01:09:50;;;;;;;8.65;4.43;;;;;;;;;;4980499;28;20041;-75
2022/07/11 01:12:16;;;;;;;10.80;4.15;;;;;;;;;;4985283;28;21613;-76
2022/07/11 01:14:52;;;;;;;15.45;4.78;;;;;;;;;;4976534;28;20502;-75
2022/07/11 01:17:19;;;;;;;13.95;4.43;;;;;;;;;;4997503;28;20030;-75
2022/07/11 01:19:45;;;;;;;15.68;4.50;;;;;;;;;;4994133;28;20052;-77
2022/07/11 01:22:13;;;;;;;15.60;4.35;;;;;;;;;;4988979;28;20040;-75
2022/07/11 01:24:39;;;;;;;13.20;4.53;;;;;;;;;;5016378;28;20080;-76
2022/07/11 01:27:04;;;;;;;10.52;4.60;;;;;;;;;;4982650;28;20421;-74
2022/07/11 01:29:30;;;;;;;8.30;4.38;;;;;;;;;;5000640;28;20038;-77
2022/07/11 01:31:55;;;;;;;15.52;4.70;;;;;;;;;;4967556;28;20113;-75
2022/07/11 01:34:21;;;;;;;11.45;4.45;;;;;;;;;;5015999;28;20431;-76
2022/07/11 01:36:46;;;;;;;16.80;4.85;;;;;;;;;;5000481;28;20270;-76
2022/07/11 01:39:11;;;;;;;10.45;4.30;;;;;;;;;;4992220;28;20184;-74
2022/07/11 01:41:37;;;;;;;7.50;3.83;;;;;;;;;;4981915;28;20434;-76
2022/07/11 01:44:02;;;;;;;12.43;4.40;;;;;;;;;;4987116;28;20114;-75
2022/07/11 01:46:28;;;;;;;7.78;4.05;;;;;;;;;;5010006;28;20042;-75
2022/07/11 01:48:53;;;;;;;10.88;4.30;;;;;;;;;;4998240;28;20057;-75
2022/07/11 01:51:19;;;;;;;12.63;5.60;;;;;;;;;;4999795;28;20148;-75
2022/07/11 01:53:44;;;;;;;14.15;4.72;;;;;;;;;;5015348;28;20514;-75
2022/07/11 01:56:09;;;;;;;8.38;4.88;;;;;;;;;;5016035;28;20129;-75
2022/07/11 01:58:35;;;;;;;10.95;4.85;;;;;;;;;;5000850;28;20055;-76
2022/07/11 02:01:00;;;;;;;11.48;5.05;;;;;;;;;;4999963;28;20124;-75
2022/07/11 02:03:25;;;;;;;13.63;5.03;;;;;;;;;;4983353;28;20057;-75
2022/07/11 02:05:51;;;;;;;10.98;4.70;;;;;;;;;;5015203;28;20049;-77
2022/07/11 02:08:17;;;;;;;12.30;5.47;;;;;;;;;;4999123;28;20084;-76
2022/07/11 02:10:47;;;;;;;12.07;5.43;;;;;;;;;;4987551;28;20032;-76
2022/07/11 02:13:13;;;;;;;10.88;4.57;;;;;;;;;;4982188;28;20038;-76
2022/07/11 02:15:39;;;;;;;9.48;5.10;;;;;;;;;;4982945;28;20022;-76
2022/07/11 02:18:05;;;;;;;10.95;4.55;;;;;;;;;;5016851;28;20026;-75
2022/07/11 02:20:32;;;;;;;11.00;5.03;;;;;;;;;;4983450;28;20061;-76
2022/07/11 02:22:58;;;;;;;8.55;4.25;;;;;;;;;;4971766;28;20421;-75
2022/07/11 02:25:23;;;;;;;14.38;4.43;;;;;;;;;;4987479;28;20106;-76
2022/07/11 02:27:50;;;;;;;8.68;3.97;;;;;;;;;;4999889;28;20121;-75
2022/07/11 02:30:15;;;;;;;7.72;4.13;;;;;;;;;;4998199;28;20076;-76
2022/07/11 02:32:40;;;;;;;7.95;4.15;;;;;;;;;;4981295;28;20497;-76
2022/07/11 02:35:06;;;;;;;7.15;3.60;;;;;;;;;;4989003;28;20065;-75
2022/07/11 02:37:31;;;;;;;12.52;4.40;;;;;;;;;;4973264;28;20166;-76
2022/07/11 02:39:57;;;;;;;10.45;4.32;;;;;;;;;;4964328;28;20053;-76
2022/07/11 02:42:22;;;;;;;8.27;3.90;;;;;;;;;;4975783;28;20425;-75
2022/07/11 02:44:48;;;;;;;7.80;3.92;;;;;;;;;;4995087;28;20104;-75
2022/07/11 02:47:14;;;;;;;8.88;3.75;;;;;;;;;;4985280;28;20056;-75
2022/07/11 02:49:39;;;;;;;9.38;3.72;;;;;;;;;;4963675;28;20030;-76
2022/07/11 02:52:05;;;;;;;10.35;4.35;;;;;;;;;;5003268;28;20045;-75
2022/07/11 02:54:30;;;;;;;8.77;4.15;;;;;;;;;;4999284;28;20103;-74
2022/07/11 02:56:56;;;;;;;8.73;4.00;;;;;;;;;;4986521;28;20124;-76
2022/07/11 02:59:21;;;;;;;8.40;4.78;;;;;;;;;;5002963;28;20400;-75
2022/07/11 03:01:47;;;;;;;9.63;4.25;;;;;;;;;;5002973;28;20041;-76
2022/07/11 03:04:13;;;;;;;8.23;3.97;;;;;;;;;;5017058;28;20136;-75
2022/07/11 03:06:40;;;;;;;12.68;4.30;;;;;;;;;;5018101;28;20454;-76
2022/07/11 03:09:07;;;;;;;8.27;3.90;;;;;;;;;;4960549;28;20034;-75
2022/07/11 03:11:32;;;;;;;5.30;4.10;;;;;;;;;;5019340;28;20028;-76
2022/07/11 03:13:58;;;;;;;7.90;4.18;;;;;;;;;;4960548;28;20030;-75
2022/07/11 03:16:23;;;;;;;9.65;4.45;;;;;;;;;;5004520;28;21353;-75
2022/07/11 03:18:49;;;;;;;11.52;4.88;;;;;;;;;;4986751;28;20049;-75
2022/07/11 03:21:14;;;;;;;7.68;4.20;;;;;;;;;;5004608;28;20080;-76
2022/07/11 03:23:40;;;;;;;8.63;4.70;;;;;;;;;;4998482;28;20478;-77
2022/07/11 03:26:05;;;;;;;10.65;5.07;;;;;;;;;;4977221;28;20069;-75
2022/07/11 03:28:30;;;;;;;8.63;4.97;;;;;;;;;;5003418;28;20875;-76
2022/07/11 03:30:56;;;;;;;9.48;5.28;;;;;;;;;;5002718;28;20068;-76
2022/07/11 03:33:21;;;;;;;8.25;4.90;;;;;;;;;;5001452;28;20050;-76
2022/07/11 03:35:47;;;;;;;7.53;4.53;;;;;;;;;;5001535;28;20085;-76
2022/07/11 03:38:13;;;;;;;8.75;5.72;;;;;;;;;;5018345;28;20062;-75
2022/07/11 03:40:39;;;;;;;11.75;4.88;;;;;;;;;;5002697;28;20054;-75
2022/07/11 03:43:04;;;;;;;11.68;5.47;;;;;;;;;;5015228;28;20448;-75
2022/07/11 03:45:29;;;;;;;9.98;4.78;;;;;;;;;;5001961;28;20042;-75
2022/07/11 03:47:55;;;;;;;10.48;5.60;;;;;;;;;;5004052;28;20533;-75
2022/07/11 03:50:20;;;;;;;9.65;5.13;;;;;;;;;;5002330;28;20118;-74
2022/07/11 03:52:46;;;;;;;11.55;5.85;;;;;;;;;;4985105;28;20422;-76
2022/07/11 03:55:11;;;;;;;11.77;5.70;;;;;;;;;;4976201;28;20431;-75
2022/07/11 03:57:36;;;;;;;11.27;5.70;;;;;;;;;;5012542;28;20129;-75
2022/07/11 04:00:07;;;;;;;9.15;5.35;;;;;;;;;;4985631;28;20048;-75
2022/07/11 04:02:32;;;;;;;13.63;5.82;;;;;;;;;;5000922;28;20026;-75
2022/07/11 04:04:58;;;;;;;9.45;5.07;;;;;;;;;;4984582;28;20033;-75
2022/07/11 04:07:23;;;;;;;9.77;5.80;;;;;;;;;;4984534;28;20100;-75
2022/07/11 04:09:48;;;;;;;10.75;5.53;;;;;;;;;;5002826;28;20057;-76
2022/07/11 04:12:14;;;;;;;12.95;5.18;;;;;;;;;;5000890;28;20060;-75
2022/07/11 04:14:39;;;;;;;12.60;4.88;;;;;;;;;;5013704;28;20040;-75
2022/07/11 04:17:05;;;;;;;13.35;5.13;;;;;;;;;;4984252;28;20061;-75
2022/07/11 04:19:30;;;;;;;7.28;4.50;;;;;;;;;;5016707;28;20117;-75
2022/07/11 04:21:55;;;;;;;11.32;5.53;;;;;;;;;;5000474;28;20099;-75
2022/07/11 04:24:21;;;;;;;12.40;5.32;;;;;;;;;;5000176;28;20049;-75
2022/07/11 04:26:46;;;;;;;7.13;4.78;;;;;;;;;;4983695;28;20045;-74
2022/07/11 04:29:12;;;;;;;9.48;4.30;;;;;;;;;;4984032;28;20034;-74
2022/07/11 04:31:37;;;;;;;6.40;4.40;;;;;;;;;;4999005;28;20022;-75
2022/07/11 04:34:03;;;;;;;7.38;4.32;;;;;;;;;;4980233;28;20107;-76
2022/07/11 04:36:28;;;;;;;8.00;4.50;;;;;;;;;;4990575;28;20533;-74
2022/07/11 04:38:56;;;;;;;9.98;5.30;;;;;;;;;;4984263;28;20057;-75
2022/07/11 04:41:22;;;;;;;7.28;4.18;;;;;;;;;;4999104;28;20045;-75
2022/07/11 04:43:47;;;;;;;12.73;4.95;;;;;;;;;;4981899;28;20085;-75
2022/07/11 04:46:14;;;;;;;7.43;4.22;;;;;;;;;;4998082;28;20049;-74
2022/07/11 04:48:39;;;;;;;9.30;4.32;;;;;;;;;;4978045;28;20025;-75
2022/07/11 04:51:08;;;;;;;11.18;4.50;;;;;;;;;;4984037;28;20426;-75
2022/07/11 04:53:37;;;;;;;8.35;4.90;;;;;;;;;;4995872;28;20082;-74
2022/07/11 04:56:02;;;;;;;8.85;4.28;;;;;;;;;;4983974;28;20038;-76
2022/07/11 04:58:31;;;;;;;8.45;4.55;;;;;;;;;;5000609;28;20654;-75
2022/07/11 05:00:57;;;;;;;7.95;4.40;;;;;;;;;;5012463;28;20516;-75
2022/07/11 05:03:22;;;;;;;8.20;4.18;;;;;;;;;;4966762;28;20034;-74
2022/07/11 05:05:48;;;;;;;13.80;4.80;;;;;;;;;;5000116;28;20087;-75
2022/07/11 05:08:13;;;;;;;14.38;4.93;;;;;;;;;;4983374;28;20685;-75
2022/07/11 05:10:38;;;;;;;9.48;5.43;;;;;;;;;;4983136;28;20050;-72
2022/07/11 05:13:05;;;;;;;9.77;6.55;;;;;;;;;;4997368;28;20034;-71
2022/07/11 05:15:30;;;;;;;11.50;5.00;;;;;;;;;;5000576;28;20030;-73
2022/07/11 05:17:55;;;;;;;5.82;4.70;;;;;;;;;;4997165;28;20053;-74
2022/07/11 05:20:21;;;;;;;7.88;4.65;;;;;;;;;;5002565;28;20045;-74
2022/07/11 05:22:46;;;;;;;8.57;4.68;;;;;;;;;;5003657;28;20439;-74
2022/07/11 05:25:12;;;;;;;10.48;4.47;;;;;;;;;;5002467;28;20025;-74
2022/07/11 05:27:37;;;;;;;9.27;5.00;;;;;;;;;;5020544;28;20406;-74
2022/07/11 05:30:03;;;;;;;8.75;4.60;;;;;;;;;;5011704;28;20125;-74
2022/07/11 05:32:28;;;;;;;7.32;4.90;;;;;;;;;;4983368;28;20080;-73
2022/07/11 05:34:55;;;;;;;8.55;4.10;;;;;;;;;;4964596;28;20065;-72
2022/07/11 05:37:20;;;;;;;8.07;4.45;;;;;;;;;;4980725;28;20022;-72
2022/07/11 05:39:45;;;;;;;7.38;4.50;;;;;;;;;;5001049;28;20437;-72
2022/07/11 05:42:11;;;;;;;9.73;5.00;;;;;;;;;;5001997;28;20454;-72
2022/07/11 05:44:36;;;;;;;7.03;4.30;;;;;;;;;;5014124;28;20060;-72
2022/07/11 05:47:02;;;;;;;6.80;3.95;;;;;;;;;;4980638;28;20133;-72
2022/07/11 05:49:28;;;;;;;6.65;3.65;;;;;;;;;;4963619;28;20031;-72
2022/07/11 05:51:53;;;;;;;6.18;3.65;;;;;;;;;;4999083;28;20195;-72
2022/07/11 05:54:18;;;;;;;4.68;3.53;;;;;;;;;;4979210;28;20540;-73
2022/07/11 05:56:44;;;;;;;6.25;3.00;;;;;;;;;;5013085;28;20089;-72
2022/07/11 05:59:09;;;;;;;3.92;2.08;;;;;;;;;;5015714;28;20034;-72
2022/07/11 06:01:35;;;;;;;4.25;2.63;;;;;;;;;;4989421;28;20469;-72
2022/07/11 06:04:00;;;;;;;5.25;2.30;;;;;;;;;;4997335;28;20142;-73
2022/07/11 06:06:26;;;;;;;4.00;2.47;;;;;;;;;;4999116;28;20068;-72
2022/07/11 06:08:52;;;;;;;3.83;2.42;;;;;;;;;;4999652;28;20502;-72
2022/07/11 06:11:18;;;;;;;4.47;2.45;;;;;;;;;;4998497;28;20030;-73
2022/07/11 06:13:49;;;;;;;4.80;1.80;;;;;;;;;;4985926;28;20057;-72
2022/07/11 06:16:14;;;;;;;5.20;1.52;;;;;;;;;;5013773;28;20034;-73
2022/07/11 06:18:40;;;;;;;3.90;1.40;;;;;;;;;;4976839;28;20125;-73
2022/07/11 06:21:05;;;;;;;4.30;2.10;;;;;;;;;;5007363;28;20447;-73
2022/07/11 06:23:31;;;;;;;3.78;1.52;;;;;;;;;;5022334;28;20114;-73
2022/07/11 06:25:56;;;;;;;3.30;1.17;;;;;;;;;;4997786;28;20116;-72
2022/07/11 06:28:22;;;;;;;2.70;1.13;;;;;;;;;;4985236;28;20037;-72
2022/07/11 06:30:47;;;;;;;1.60;0.88;;;;;;;;;;5000340;28;20514;-73
2022/07/11 06:33:15;;;;;;;3.00;0.98;;;;;;;;;;4997914;28;20065;-75
2022/07/11 06:35:40;;;;;;;2.83;1.08;;;;;;;;;;4991524;28;20108;-74
2022/07/11 06:38:07;;;;;;;2.75;0.90;;;;;;;;;;5000444;28;20050;-74
2022/07/11 06:40:33;;;;;;;3.90;1.30;;;;;;;;;;5000491;28;20034;-75
2022/07/11 06:42:58;;;;;;;2.65;0.90;;;;;;;;;;4984817;28;20363;-73
2022/07/11 06:45:23;;;;;;;3.13;1.38;;;;;;;;;;4984298;28;20034;-74
2022/07/11 06:47:49;;;;;;;1.90;0.90;;;;;;;;;;4999086;28;20042;-74
2022/07/11 06:50:14;;;;;;;3.67;1.30;;;;;;;;;;4977710;28;20380;-75
2022/07/11 06:52:39;;;;;;;2.17;1.02;;;;;;;;;;4986541;28;20104;-75
2022/07/11 06:55:05;;;;;;;3.38;1.20;;;;;;;;;;4983460;28;20111;-74
2022/07/11 06:57:30;;;;;;;4.28;1.20;;;;;;;;;;4999779;28;20048;-74
2022/07/11 06:59:56;;;;;;;1.92;1.00;;;;;;;;;;5001943;28;20026;-74
2022/07/11 07:02:26;;;;;;;2.17;1.05;;;;;;;;;;5018587;28;20502;-74
2022/07/11 07:04:51;;;;;;;2.58;1.17;;;;;;;;;;5001335;28;20034;-76
2022/07/11 07:07:16;;;;;;;3.58;1.20;;;;;;;;;;4998157;28;20124;-75
2022/07/11 07:09:42;;;;;;;0.95;0.50;;;;;;;;;;4986912;28;20545;-75
2022/07/11 07:12:07;;;;;;;1.10;0.60;;;;;;;;;;4986714;28;21558;-75
2022/07/11 07:14:32;;;;;;;2.90;0.90;;;;;;;;;;4982979;28;20121;-76
2022/07/11 07:16:58;;;;;;;1.15;0.60;;;;;;;;;;4976788;28;20479;-74
2022/07/11 07:19:23;;;;;;;1.52;0.68;;;;;;;;;;4996807;28;20117;-76
2022/07/11 07:21:48;;;;;;;2.70;0.85;;;;;;;;;;5013877;28;20054;-76
2022/07/11 07:24:14;;;;;;;2.60;0.90;;;;;;;;;;4986220;28;20053;-76
2022/07/11 07:26:39;;;;;;;1.17;0.60;;;;;;;;;;5003604;28;20646;-74
2022/07/11 07:29:05;;;;;;;1.35;0.55;;;;;;;;;;4987172;28;20065;-75
2022/07/11 07:31:30;;;;;;;1.27;0.50;;;;;;;;;;5005339;28;20065;-75
2022/07/11 07:33:55;;;;;;;1.80;0.70;;;;;;;;;;5020017;28;20034;-75
2022/07/11 07:36:21;;;;;;;1.55;0.57;;;;;;;;;;4969562;28;20165;-75
2022/07/11 07:38:49;;;;;;;1.52;0.88;;;;;;;;;;5002832;28;20080;-74
2022/07/11 07:41:14;;;;;;;4.55;1.10;;;;;;;;;;4971118;28;20029;-74
2022/07/11 07:43:41;;;;;;;1.85;0.65;;;;;;;;;;5015138;28;20554;-74
2022/07/11 07:46:08;;;;;;;1.58;0.50;;;;;;;;;;4997654;28;20053;-75
2022/07/11 07:48:34;;;;;;;1.23;0.70;;;;;;;;;;4985697;28;20030;-74
2022/07/11 07:50:59;;;;;;;2.03;0.60;;;;;;;;;;4984849;28;20406;-74
2022/07/11 07:53:24;;;;;;;3.38;0.90;;;;;;;;;;5017582;28;20057;-76
2022/07/11 07:55:50;;;;;;;1.27;0.47;;;;;;;;;;4986032;28;20022;-73
2022/07/11 07:58:15;;;;;;;1.55;0.57;;;;;;;;;;4997763;28;20029;-74
2022/07/11 08:03:24;;;;;;;4.07;0.60;;;;;;;;;;5002865;28;20041;-72
2022/07/11 08:05:50;;;;;;;0.50;0.30;;;;;;;;;;4983742;28;20061;-73
2022/07/11 08:08:15;;;;;;;2.13;0.63;;;;;;;;;;5018305;28;20104;-73
2022/07/11 08:10:40;;;;;;;1.83;0.52;;;;;;;;;;5016892;28;20064;-74
2022/07/11 08:13:06;;;;;;;2.70;0.70;;;;;;;;;;4991423;28;20149;-73
2022/07/11 08:15:31;;;;;;;4.38;0.82;;;;;;;;;;4971310;28;20541;-73
2022/07/11 08:17:56;;;;;;;1.63;0.77;;;;;;;;;;4998709;28;20114;-73
2022/07/11 08:20:22;;;;;;;1.90;0.70;;;;;;;;;;5016600;28;20117;-74
2022/07/11 08:22:47;;;;;;;2.42;0.60;;;;;;;;;;5001321;28;20474;-74
2022/07/11 08:25:13;;;;;;;1.90;0.80;;;;;;;;;;4986907;28;20573;-75
2022/07/11 08:27:39;;;;;;;1.90;0.63;;;;;;;;;;5021130;28;20061;-75
2022/07/11 08:30:05;;;;;;;2.47;0.60;;;;;;;;;;5004022;28;20042;-74
2022/07/11 08:32:31;;;;;;;2.03;0.50;;;;;;;;;;5004266;28;20033;-74
2022/07/11 08:34:56;;;;;;;1.20;0.63;;;;;;;;;;4998754;28;21504;-75
2022/07/11 08:37:21;;;;;;;1.63;0.60;;;;;;;;;;5001359;28;20056;-74
2022/07/11 08:39:47;;;;;;;1.58;0.38;;;;;;;;;;5015055;28;20118;-74
2022/07/11 08:42:12;;;;;;;1.50;0.43;;;;;;;;;;4991400;28;20099;-74
2022/07/11 08:44:39;;;;;;;1.00;0.30;;;;;;;;;;4994791;28;20049;-74
2022/07/11 08:47:05;;;;;;;1.17;0.20;;;;;;;;;;5000468;28;20056;-74
2022/07/11 08:49:31;;;;;;;1.25;0.55;;;;;;;;;;5022320;28;20425;-73
2022/07/11 08:51:56;;;;;;;1.80;0.52;;;;;;;;;;4986393;28;20026;-74
2022/07/11 08:54:22;;;;;;;1.27;0.60;;;;;;;;;;5002396;28;20030;-73
2022/07/11 08:56:49;;;;;;;0.90;0.40;;;;;;;;;;5003634;28;20045;-74
2022/07/11 08:59:17;;;;;;;1.60;0.70;;;;;;;;;;5019527;28;20141;-73
2022/07/11 09:01:44;;;;;;;1.75;0.63;;;;;;;;;;5011044;28;20112;-73
2022/07/11 09:04:10;;;;;;;1.80;0.73;;;;;;;;;;4986518;28;20533;-73
2022/07/11 09:06:35;;;;;;;4.57;0.52;;;;;;;;;;4990940;28;20148;-73
2022/07/11 09:09:01;;;;;;;1.75;0.50;;;;;;;;;;4999677;28;20109;-73
2022/07/11 09:11:27;;;;;;;2.17;0.75;;;;;;;;;;4985281;28;20038;-74
2022/07/11 09:13:52;;;;;;;2.50;0.60;;;;;;;;;;5018003;28;20050;-74
2022/07/11 09:16:19;;;;;;;0.77;0.40;;;;;;;;;;4996548;28;20105;-74
2022/07/11 09:18:44;;;;;;;1.02;0.50;;;;;;;;;;4997927;28;20030;-74
2022/07/11 09:26:46;;;;;;;0.77;0.47;;;;;;;;;;5011412;28;20064;-75
2022/07/11 09:29:13;;;;;;;0.98;0.40;;;;;;;;;;4982802;28;20052;-76
2022/07/11 09:31:39;;;;;;;1.38;0.32;;;;;;;;;;4982041;28;20062;-76
2022/07/11 09:34:09;;;;;;;1.27;0.40;;;;;;;;;;4996349;28;20037;-76
2022/07/11 09:36:51;;;;;;;1.83;0.40;;;;;;;;;;5017834;28;20092;-76
2022/07/11 09:39:21;;;;;;;1.77;0.47;;;;;;;;;;4985535;28;20057;-77
2022/07/11 09:41:47;;;;;;;0.80;0.30;;;;;;;;;;5000246;28;20031;-76
2022/07/11 09:44:31;;;;;;;0.77;0.35;;;;;;;;;;4969837;28;20077;-76
2022/07/11 09:46:56;;;;;;;0.65;0.40;;;;;;;;;;4977267;28;20041;-77
2022/07/11 09:49:29;;;;;;;1.52;0.40;;;;;;;;;;4986931;28;20026;-72
2022/07/11 09:51:55;;;;;;;1.02;0.50;;;;;;;;;;5016751;28;20042;-71
2022/07/11 09:54:20;;;;;;;1.25;0.45;;;;;;;;;;5016559;28;20160;-72
2022/07/11 09:56:51;;;;;;;3.30;0.65;;;;;;;;;;5018792;28;20697;-72
2022/07/11 09:59:17;;;;;;;1.75;0.50;;;;;;;;;;5007172;28;20046;-72
2022/07/11 10:01:42;;;;;;;0.68;0.40;;;;;;;;;;5023455;28;20569;-72
2022/07/11 10:04:08;;;;;;;1.98;0.60;;;;;;;;;;5005432;28;20065;-71
2022/07/11 10:06:34;;;;;;;1.45;0.50;;;;;;;;;;5017568;28;20092;-77
2022/07/11 10:09:00;;;;;;;3.83;0.57;;;;;;;;;;4957587;28;20399;-76
2022/07/11 10:11:25;;;;;;;0.80;0.50;;;;;;;;;;4987994;28;20241;-76
2022/07/11 10:13:51;;;;;;;1.50;0.50;;;;;;;;;;5010755;28;20126;-76
2022/07/11 10:16:54;;;;;;;1.15;0.47;;;;;;;;;;5022834;28;20437;-76
2022/07/11 10:19:52;;;;;;;1.65;0.57;;;;;;;;;;5007850;28;20061;-76
2022/07/11 10:22:23;;;;;;;1.80;0.70;;;;;;;;;;4982140;28;20748;-76
2022/07/11 10:25:16;;;;;;;3.03;0.50;;;;;;;;;;5017887;28;20386;-76
2022/07/11 10:28:15;;;;;;;2.10;0.40;;;;;;;;;;5007204;28;20128;-76
2022/07/11 10:30:48;;;;;;;1.33;0.68;;;;;;;;;;5006047;28;20048;-75
2022/07/11 10:33:14;;;;;;;0.65;0.45;;;;;;;;;;5006698;28;20030;-76
2022/07/11 10:35:44;;;;;;;3.33;0.68;;;;;;;;;;5015538;28;20112;-75
2022/07/11 10:38:09;;;;;;;1.35;0.60;;;;;;;;;;4999964;28;20116;-77
2022/07/11 10:40:45;;;;;;;1.38;0.60;;;;;;;;;;5019930;28;20125;-77
2022/07/11 10:43:11;;;;;;;0.57;0.40;;;;;;;;;;4984224;28;20042;-76
2022/07/11 10:45:56;;;;;;;1.23;0.50;;;;;;;;;;5005530;28;20042;-77
2022/07/11 10:48:22;;;;;;;2.35;0.65;;;;;;;;;;5022714;28;20506;-76
2022/07/11 10:50:47;;;;;;;1.85;0.70;;;;;;;;;;5006476;28;20041;-76
2022/07/11 10:53:21;;;;;;;1.73;0.60;;;;;;;;;;5000908;28;20481;-77
2022/07/11 10:55:53;;;;;;;2.63;0.40;;;;;;;;;;5002576;28;20109;-76
2022/07/11 10:58:24;;;;;;;1.52;0.63;;;;;;;;;;4972341;28;20030;-76
2022/07/11 11:01:14;;;;;;;1.98;0.80;;;;;;;;;;5004318;28;20030;-76
2022/07/11 11:03:40;;;;;;;2.20;0.60;;;;;;;;;;5005384;28;20539;-77
2022/07/11 11:06:06;;;;;;;1.95;0.60;;;;;;;;;;5000792;28;20092;-76
2022/07/11 11:08:31;;;;;;;2.13;0.70;;;;;;;;;;5015614;28;20042;-76
2022/07/11 11:10:57;;;;;;;3.20;0.60;;;;;;;;;;4999127;28;20033;-76
2022/07/11 11:13:22;;;;;;;1.73;0.65;;;;;;;;;;5001394;28;20037;-77
2022/07/11 11:15:58;;;;;;;1.00;0.55;;;;;;;;;;4968887;28;20482;-76
2022/07/11 11:18:24;;;;;;;1.17;0.60;;;;;;;;;;5005090;28;20037;-76
2022/07/11 11:21:08;;;;;;;3.40;0.80;;;;;;;;;;5006590;28;20032;-77
2022/07/11 11:23:35;;;;;;;1.30;0.55;;;;;;;;;;5005299;28;20479;-76
2022/07/11 11:26:07;;;;;;;1.90;0.70;;;;;;;;;;5004906;28;20041;-76
2022/07/11 11:28:32;;;;;;;3.10;0.50;;;;;;;;;;4971764;28;20045;-76
2022/07/11 11:30:59;;;;;;;0.73;0.50;;;;;;;;;;4992179;28;20449;-76
2022/07/11 11:33:25;;;;;;;4.10;0.60;;;;;;;;;;4985202;28;20045;-76
2022/07/11 11:36:09;;;;;;;2.25;0.65;;;;;;;;;;4987517;28;20398;-76
2022/07/11 11:38:41;;;;;;;1.25;0.43;;;;;;;;;;4980463;28;20030;-76
2022/07/11 11:41:06;;;;;;;1.55;0.60;;;;;;;;;;4987482;28;20045;-76
2022/07/11 11:43:32;;;;;;;4.38;1.00;;;;;;;;;;4987335;28;20446;-76
2022/07/11 11:45:58;;;;;;;0.93;0.50;;;;;;;;;;4987979;28;20274;-77
2022/07/11 11:48:30;;;;;;;1.15;0.50;;;;;;;;;;4963302;28;20023;-76
2022/07/11 11:51:06;;;;;;;3.33;0.88;;;;;;;;;;5013164;28;20045;-76
2022/07/11 11:53:47;;;;;;;1.08;0.60;;;;;;;;;;5003390;28;20486;-76
2022/07/11 11:56:23;;;;;;;1.00;0.38;;;;;;;;;;4979466;28;20394;-76
2022/07/11 11:58:49;;;;;;;1.38;0.47;;;;;;;;;;4979758;28;20478;-76
2022/07/11 12:01:20;;;;;;;1.95;0.82;;;;;;;;;;4981126;28;20115;-77
2022/07/11 12:03:55;;;;;;;1.55;0.60;;;;;;;;;;5003313;28;20433;-76
2022/07/11 12:06:21;;;;;;;0.77;0.50;;;;;;;;;;5012869;28;20076;-76
2022/07/11 12:08:47;;;;;;;1.85;0.75;;;;;;;;;;4992962;28;20029;-76
2022/07/11 12:11:13;;;;;;;4.03;0.70;;;;;;;;;;4984783;28;20092;-76
2022/07/11 12:13:40;;;;;;;5.75;0.60;;;;;;;;;;4997919;28;20587;-76
2022/07/11 12:16:44;;;;;;;2.05;0.68;;;;;;;;;;5003421;28;20068;-76
2022/07/11 12:19:19;;;;;;;1.10;0.50;;;;;;;;;;4989094;28;20067;-76
2022/07/11 12:21:46;;;;;;;3.70;0.65;;;;;;;;;;5012333;28;20494;-76
2022/07/11 12:24:16;;;;;;;1.20;0.43;;;;;;;;;;5020179;28;20042;-76
2022/07/11 12:26:42;;;;;;;1.77;0.50;;;;;;;;;;4988065;28;20501;-76
2022/07/11 12:29:07;;;;;;;1.42;0.40;;;;;;;;;;5012027;28;20061;-76
2022/07/11 12:32:01;;;;;;;0.55;0.50;;;;;;;;;;4996168;28;20034;-77
2022/07/11 12:34:32;;;;;;;1.73;0.50;;;;;;;;;;4996650;28;20034;-77
2022/07/11 12:37:12;;;;;;;2.15;0.70;;;;;;;;;;4997346;28;20486;-77
2022/07/11 12:39:39;;;;;;;2.03;0.60;;;;;;;;;;4991619;28;20491;-77
2022/07/11 12:42:24;;;;;;;2.38;0.60;;;;;;;;;;4999551;28;20112;-77
2022/07/11 12:44:59;;;;;;;0.98;0.55;;;;;;;;;;4998147;28;20050;-75
2022/07/11 12:47:28;;;;;;;0.98;0.47;;;;;;;;;;5010091;28;20629;-76
2022/07/11 12:49:54;;;;;;;1.23;0.50;;;;;;;;;;5019958;28;20033;-76
2022/07/11 12:52:19;;;;;;;1.00;0.43;;;;;;;;;;4986167;28;20026;-76
2022/07/11 12:54:45;;;;;;;0.73;0.20;;;;;;;;;;4995626;28;20060;-76
2022/07/11 12:57:15;;;;;;;1.38;0.30;;;;;;;;;;4994154;28;20083;-78
2022/07/11 12:59:40;;;;;;;2.58;0.50;;;;;;;;;;4974842;28;20033;-77
2022/07/11 13:02:07;;;;;;;1.52;0.50;;;;;;;;;;4987197;28;20030;-78
2022/07/11 13:04:48;;;;;;;2.85;0.45;;;;;;;;;;5002775;28;20026;-77
2022/07/11 13:10:23;;;;;;;2.40;0.75;;;;;;;;;;4999220;28;20076;-77
2022/07/11 13:12:51;;;;;;;2.25;0.60;;;;;;;;;;4983113;28;20451;-77
2022/07/11 13:15:20;;;;;;;1.05;0.63;;;;;;;;;;4984519;28;20239;-77
2022/07/11 13:17:47;;;;;;;0.60;0.40;;;;;;;;;;4998888;28;20038;-77
2022/07/11 13:20:20;;;;;;;3.30;1.15;;;;;;;;;;4998234;28;20509;-77
2022/07/11 13:22:46;;;;;;;0.63;0.40;;;;;;;;;;4973077;28;20030;-77
2022/07/11 13:25:12;;;;;;;1.13;0.60;;;;;;;;;;4970871;28;20034;-77
2022/07/11 13:27:41;;;;;;;1.17;0.47;;;;;;;;;;4997294;28;20042;-75
2022/07/11 13:30:11;;;;;;;3.72;0.43;;;;;;;;;;5007412;28;20052;-75
2022/07/11 13:32:39;;;;;;;0.75;0.50;;;;;;;;;;4965568;28;20025;-74
2022/07/11 13:35:05;;;;;;;1.40;0.47;;;;;;;;;;5014551;28;20581;-74
2022/07/11 13:37:30;;;;;;;0.50;0.40;;;;;;;;;;5003114;28;20129;-74
2022/07/11 13:39:56;;;;;;;0.45;0.17;;;;;;;;;;4993876;28;20518;-74
2022/07/11 13:42:21;;;;;;;2.22;0.60;;;;;;;;;;4998575;28;20892;-75
2022/07/11 13:44:46;;;;;;;1.23;0.70;;;;;;;;;;4998177;28;20132;-75
2022/07/11 13:47:13;;;;;;;0.73;0.50;;;;;;;;;;4989053;28;20215;-75
2022/07/11 13:49:39;;;;;;;1.83;0.80;;;;;;;;;;4968594;28;20099;-75
2022/07/11 13:52:04;;;;;;;3.72;1.02;;;;;;;;;;4997945;28;20038;-75
2022/07/11 13:54:30;;;;;;;3.25;1.10;;;;;;;;;;4958141;28;20036;-75
2022/07/11 13:56:55;;;;;;;1.75;0.73;;;;;;;;;;4997786;28;20061;-75
2022/07/11 13:59:20;;;;;;;2.55;0.80;;;;;;;;;;5014040;28;20176;-75
2022/07/11 14:01:46;;;;;;;3.45;1.15;;;;;;;;;;4998851;28;20065;-74
2022/07/11 14:04:11;;;;;;;1.58;0.75;;;;;;;;;;4997026;28;20577;-75
2022/07/11 14:06:36;;;;;;;2.60;0.85;;;;;;;;;;4998667;28;20497;-75
2022/07/11 14:09:02;;;;;;;2.80;0.90;;;;;;;;;;4981592;28;20050;-75
2022/07/11 14:11:28;;;;;;;3.38;0.82;;;;;;;;;;4990958;28;20044;-75
2022/07/11 14:13:53;;;;;;;2.45;1.30;;;;;;;;;;4979147;28;20490;-74
2022/07/11 14:16:19;;;;;;;3.85;1.38;;;;;;;;;;4996394;28;20030;-75
2022/07/11 14:18:44;;;;;;;3.60;1.50;;;;;;;;;;4993426;28;20470;-74
2022/07/11 14:21:10;;;;;;;2.53;1.13;;;;;;;;;;4980664;28;20068;-74
2022/07/11 14:23:35;;;;;;;3.63;1.15;;;;;;;;;;4991996;28;20570;-74
2022/07/11 14:26:01;;;;;;;2.33;0.98;;;;;;;;;;4991104;28;20050;-74
2022/07/11 14:28:26;;;;;;;2.38;0.88;;;;;;;;;;4997339;28;20113;-75
2022/07/11 14:30:52;;;;;;;1.75;0.93;;;;;;;;;;4981544;28;20069;-74
2022/07/11 14:33:17;;;;;;;1.80;0.95;;;;;;;;;;4999130;28;20061;-75
2022/07/11 14:35:43;;;;;;;3.28;0.95;;;;;;;;;;4998717;28;20034;-75
2022/07/11 14:38:08;;;;;;;3.47;1.38;;;;;;;;;;5002379;28;20537;-75
2022/07/11 14:40:33;;;;;;;4.95;1.10;;;;;;;;;;5001315;28;20058;-74
2022/07/11 14:42:59;;;;;;;1.92;1.00;;;;;;;;;;5004409;28;20045;-77
2022/07/11 14:45:24;;;;;;;1.85;0.82;;;;;;;;;;4958018;28;20097;-76
2022/07/11 14:47:50;;;;;;;1.60;0.63;;;;;;;;;;5000801;28;20037;-75
2022/07/11 14:50:16;;;;;;;2.90;0.77;;;;;;;;;;5002498;28;20048;-75
2022/07/11 14:52:41;;;;;;;1.05;0.50;;;;;;;;;;4981174;28;20033;-76